Edmundson, Missouri
Current Conditions -  °F | °C
As of 8:15 AM on Thursday 27 Nov 2014 (Local Time) from KSTL Reporting Station
Haze Haze  
Wind Chill: 21°   Ceiling: 1600
Heat Index: 30°   Visibility: 5mi
Dew Point: 25°   Wind: 12mph
Humidity: 80%   Direction: 310°NW
Pressure: 30.46"   Gusts: NA
Location:  38.7422°N, 90.3457°W
Report Text: KSTL 271415Z 31010KT 5SM HZ BKN016 OVC020 M01/M04 A3046 RMK AO2
Loading
Personal Weather Stations






























Interactive Weather Map New forecast layout! Learn more

10-Day Weather Forecast

Advertisements
Track Severe Weather on mobile